sensor_id;sensor_type;location;lat;lon;timestamp;P1;durP1;ratioP1;P2;durP2;ratioP2
42978;SDS011;28616;44.746;19.678;2023-03-05T09:45:48;47.63;;;21.15;;
42978;SDS011;28616;44.746;19.678;2023-03-05T09:48:21;32.35;;;15.65;;
42978;SDS011;28616;44.746;19.678;2023-03-05T09:53:39;36.30;;;16.50;;
42978;SDS011;28616;44.746;19.678;2023-03-05T09:56:11;33.00;;;15.35;;
42978;SDS011;28616;44.746;19.678;2023-03-05T09:58:51;29.50;;;14.85;;
42978;SDS011;28616;44.746;19.678;2023-03-05T10:01:22;81.72;;;36.30;;
42978;SDS011;28616;44.746;19.678;2023-03-05T10:04:00;47.67;;;25.13;;
42978;SDS011;28616;44.746;19.678;2023-03-05T10:06:49;42.55;;;20.00;;
42978;SDS011;28616;44.746;19.678;2023-03-05T10:12:34;33.20;;;16.33;;
42978;SDS011;28616;44.746;19.678;2023-03-05T10:15:13;38.45;;;16.90;;
42978;SDS011;28616;44.746;19.678;2023-03-05T10:17:57;48.35;;;22.67;;
42978;SDS011;28616;44.746;19.678;2023-03-05T10:20:34;35.45;;;18.05;;
42978;SDS011;28616;44.746;19.678;2023-03-05T10:23:40;33.33;;;16.60;;
42978;SDS011;28616;44.746;19.678;2023-03-05T10:26:19;34.80;;;12.77;;
42978;SDS011;28616;44.746;19.678;2023-03-05T10:45:16;24.77;;;13.35;;
42978;SDS011;28616;44.746;19.678;2023-03-05T10:47:59;54.13;;;26.27;;
42978;SDS011;28616;44.746;19.678;2023-03-05T10:50:26;49.30;;;22.67;;
42978;SDS011;28616;44.746;19.678;2023-03-05T10:55:34;82.28;;;35.53;;
42978;SDS011;28616;44.746;19.678;2023-03-05T10:58:01;97.88;;;43.60;;
42978;SDS011;28616;44.746;19.678;2023-03-05T11:04:01;46.17;;;21.23;;
42978;SDS011;28616;44.746;19.678;2023-03-05T11:14:28;38.58;;;17.40;;
42978;SDS011;28616;44.746;19.678;2023-03-05T11:16:57;77.22;;;33.50;;
42978;SDS011;28616;44.746;19.678;2023-03-05T11:19:28;24.52;;;15.32;;
42978;SDS011;28616;44.746;19.678;2023-03-05T11:22:17;42.70;;;23.80;;
42978;SDS011;28616;44.746;19.678;2023-03-05T11:27:38;35.20;;;17.65;;
42978;SDS011;28616;44.746;19.678;2023-03-05T11:33:36;22.85;;;13.40;;
42978;SDS011;28616;44.746;19.678;2023-03-05T11:35:44;30.33;;;14.77;;
42978;SDS011;28616;44.746;19.678;2023-03-05T11:38:19;39.67;;;20.90;;
42978;SDS011;28616;44.746;19.678;2023-03-05T11:40:48;27.92;;;15.38;;
42978;SDS011;28616;44.746;19.678;2023-03-05T11:43:20;28.73;;;14.68;;
42978;SDS011;28616;44.746;19.678;2023-03-05T11:45:48;29.50;;;14.27;;
42978;SDS011;28616;44.746;19.678;2023-03-05T11:48:27;37.05;;;18.90;;
42978;SDS011;28616;44.746;19.678;2023-03-05T11:51:18;18.95;;;10.05;;
42978;SDS011;28616;44.746;19.678;2023-03-05T11:53:50;32.65;;;15.00;;
42978;SDS011;28616;44.746;19.678;2023-03-05T11:56:35;64.90;;;32.05;;
42978;SDS011;28616;44.746;19.678;2023-03-05T11:59:06;85.53;;;39.13;;
42978;SDS011;28616;44.746;19.678;2023-03-05T12:04:21;38.63;;;20.27;;
42978;SDS011;28616;44.746;19.678;2023-03-05T12:06:51;23.23;;;12.82;;
42978;SDS011;28616;44.746;19.678;2023-03-05T12:09:36;35.85;;;18.75;;
42978;SDS011;28616;44.746;19.678;2023-03-05T12:17:27;29.67;;;15.45;;
42978;SDS011;28616;44.746;19.678;2023-03-05T12:20:12;30.30;;;17.35;;
42978;SDS011;28616;44.746;19.678;2023-03-05T12:23:02;33.78;;;16.70;;
42978;SDS011;28616;44.746;19.678;2023-03-05T12:25:32;23.23;;;12.52;;
42978;SDS011;28616;44.746;19.678;2023-03-05T12:28:52;29.23;;;13.98;;
42978;SDS011;28616;44.746;19.678;2023-03-05T12:31:00;21.60;;;11.90;;
42978;SDS011;28616;44.746;19.678;2023-03-05T12:33:42;16.98;;;9.60;;
42978;SDS011;28616;44.746;19.678;2023-03-05T12:38:49;46.75;;;20.65;;
42978;SDS011;28616;44.746;19.678;2023-03-05T12:46:43;30.02;;;17.05;;
42978;SDS011;28616;44.746;19.678;2023-03-05T12:51:47;22.58;;;12.20;;
42978;SDS011;28616;44.746;19.678;2023-03-05T12:54:33;19.23;;;11.02;;
42978;SDS011;28616;44.746;19.678;2023-03-05T12:57:26;20.10;;;10.15;;
42978;SDS011;28616;44.746;19.678;2023-03-05T13:02:47;42.55;;;18.95;;
42978;SDS011;28616;44.746;19.678;2023-03-05T13:05:28;23.33;;;11.25;;
42978;SDS011;28616;44.746;19.678;2023-03-05T13:08:09;24.88;;;13.63;;
42978;SDS011;28616;44.746;19.678;2023-03-05T13:10:35;29.00;;;13.55;;
42978;SDS011;28616;44.746;19.678;2023-03-05T13:13:10;42.10;;;18.77;;
42978;SDS011;28616;44.746;19.678;2023-03-05T13:15:46;17.93;;;9.93;;
42978;SDS011;28616;44.746;19.678;2023-03-05T13:18:20;50.53;;;26.30;;
42978;SDS011;28616;44.746;19.678;2023-03-05T13:21:32;28.55;;;13.90;;
42978;SDS011;28616;44.746;19.678;2023-03-05T13:23:46;47.35;;;23.33;;
42978;SDS011;28616;44.746;19.678;2023-03-05T13:26:22;32.15;;;16.30;;
42978;SDS011;28616;44.746;19.678;2023-03-05T13:34:23;44.33;;;20.13;;
42978;SDS011;28616;44.746;19.678;2023-03-05T13:39:24;21.85;;;10.55;;
42978;SDS011;28616;44.746;19.678;2023-03-05T13:44:41;24.27;;;11.52;;
42978;SDS011;28616;44.746;19.678;2023-03-05T13:47:08;28.42;;;13.35;;
42978;SDS011;28616;44.746;19.678;2023-03-05T13:49:41;36.42;;;17.20;;
42978;SDS011;28616;44.746;19.678;2023-03-05T13:52:08;214.93;;;97.78;;
42978;SDS011;28616;44.746;19.678;2023-03-05T13:54:34;81.95;;;40.63;;
42978;SDS011;28616;44.746;19.678;2023-03-05T13:57:01;48.97;;;19.88;;
42978;SDS011;28616;44.746;19.678;2023-03-05T13:59:30;54.17;;;24.45;;
42978;SDS011;28616;44.746;19.678;2023-03-05T14:02:00;66.68;;;25.40;;
42978;SDS011;28616;44.746;19.678;2023-03-05T14:07:19;31.83;;;15.30;;
42978;SDS011;28616;44.746;19.678;2023-03-05T14:09:55;28.40;;;13.77;;
42978;SDS011;28616;44.746;19.678;2023-03-05T14:12:29;32.40;;;16.08;;
42978;SDS011;28616;44.746;19.678;2023-03-05T14:15:24;36.50;;;17.40;;
42978;SDS011;28616;44.746;19.678;2023-03-05T14:17:51;19.15;;;10.60;;
42978;SDS011;28616;44.746;19.678;2023-03-05T14:20:31;35.40;;;18.08;;
42978;SDS011;28616;44.746;19.678;2023-03-05T14:22:57;23.67;;;13.00;;
42978;SDS011;28616;44.746;19.678;2023-03-05T14:25:33;19.27;;;10.27;;
42978;SDS011;28616;44.746;19.678;2023-03-05T14:28:03;32.80;;;12.63;;
42978;SDS011;28616;44.746;19.678;2023-03-05T14:30:47;34.33;;;15.48;;
42978;SDS011;28616;44.746;19.678;2023-03-05T14:33:31;29.52;;;15.07;;
42978;SDS011;28616;44.746;19.678;2023-03-05T14:35:58;25.27;;;12.77;;
42978;SDS011;28616;44.746;19.678;2023-03-05T14:38:26;30.25;;;13.55;;
42978;SDS011;28616;44.746;19.678;2023-03-05T14:40:56;43.58;;;19.83;;
42978;SDS011;28616;44.746;19.678;2023-03-05T14:43:21;32.13;;;14.57;;
42978;SDS011;28616;44.746;19.678;2023-03-05T14:45:47;27.67;;;13.25;;
42978;SDS011;28616;44.746;19.678;2023-03-05T14:48:15;32.13;;;18.42;;
42978;SDS011;28616;44.746;19.678;2023-03-05T14:50:52;26.73;;;11.13;;
42978;SDS011;28616;44.746;19.678;2023-03-05T14:53:29;25.00;;;12.70;;
42978;SDS011;28616;44.746;19.678;2023-03-05T14:56:02;24.30;;;12.30;;
42978;SDS011;28616;44.746;19.678;2023-03-05T14:58:29;54.17;;;23.10;;
42978;SDS011;28616;44.746;19.678;2023-03-05T15:00:56;72.85;;;34.03;;
42978;SDS011;28616;44.746;19.678;2023-03-05T15:03:22;111.32;;;48.42;;
42978;SDS011;28616;44.746;19.678;2023-03-05T15:05:50;91.85;;;38.15;;
42978;SDS011;28616;44.746;19.678;2023-03-05T15:08:25;211.95;;;70.63;;
42978;SDS011;28616;44.746;19.678;2023-03-05T15:10:54;376.02;;;131.45;;
42978;SDS011;28616;44.746;19.678;2023-03-05T15:13:20;92.00;;;38.45;;
42978;SDS011;28616;44.746;19.678;2023-03-05T15:15:46;126.88;;;46.88;;
42978;SDS011;28616;44.746;19.678;2023-03-05T15:18:15;131.77;;;46.63;;
42978;SDS011;28616;44.746;19.678;2023-03-05T15:20:42;26.85;;;13.48;;
42978;SDS011;28616;44.746;19.678;2023-03-05T15:23:09;24.98;;;12.82;;
42978;SDS011;28616;44.746;19.678;2023-03-05T15:25:36;27.13;;;14.20;;
42978;SDS011;28616;44.746;19.678;2023-03-05T15:28:02;67.07;;;31.67;;
42978;SDS011;28616;44.746;19.678;2023-03-05T15:30:29;48.03;;;23.33;;
42978;SDS011;28616;44.746;19.678;2023-03-05T15:32:57;45.15;;;18.80;;
42978;SDS011;28616;44.746;19.678;2023-03-05T15:35:26;58.63;;;27.73;;
42978;SDS011;28616;44.746;19.678;2023-03-05T15:37:52;60.00;;;32.65;;
42978;SDS011;28616;44.746;19.678;2023-03-05T15:40:18;61.13;;;30.48;;
42978;SDS011;28616;44.746;19.678;2023-03-05T15:42:45;47.38;;;22.15;;
42978;SDS011;28616;44.746;19.678;2023-03-05T15:45:11;42.22;;;19.60;;
42978;SDS011;28616;44.746;19.678;2023-03-05T15:47:39;71.45;;;32.95;;
42978;SDS011;28616;44.746;19.678;2023-03-05T15:50:05;59.08;;;28.08;;
42978;SDS011;28616;44.746;19.678;2023-03-05T15:52:31;62.03;;;29.40;;
42978;SDS011;28616;44.746;19.678;2023-03-05T15:54:59;67.90;;;31.15;;
42978;SDS011;28616;44.746;19.678;2023-03-05T15:57:25;78.38;;;34.25;;
42978;SDS011;28616;44.746;19.678;2023-03-05T15:59:50;59.97;;;28.90;;
42978;SDS011;28616;44.746;19.678;2023-03-05T16:02:18;70.82;;;34.13;;
42978;SDS011;28616;44.746;19.678;2023-03-05T16:04:43;50.83;;;24.85;;
42978;SDS011;28616;44.746;19.678;2023-03-05T16:07:09;86.70;;;40.47;;
42978;SDS011;28616;44.746;19.678;2023-03-05T16:09:37;111.55;;;49.28;;
42978;SDS011;28616;44.746;19.678;2023-03-05T16:12:11;221.80;;;92.50;;
42978;SDS011;28616;44.746;19.678;2023-03-05T16:14:42;115.80;;;49.97;;
42978;SDS011;28616;44.746;19.678;2023-03-05T16:17:08;168.07;;;70.88;;
42978;SDS011;28616;44.746;19.678;2023-03-05T16:19:35;183.27;;;73.03;;
42978;SDS011;28616;44.746;19.678;2023-03-05T16:22:06;286.33;;;114.57;;
42978;SDS011;28616;44.746;19.678;2023-03-05T16:24:33;267.23;;;111.50;;
42978;SDS011;28616;44.746;19.678;2023-03-05T16:27:00;171.70;;;74.65;;
42978;SDS011;28616;44.746;19.678;2023-03-05T16:29:25;176.60;;;76.03;;
42978;SDS011;28616;44.746;19.678;2023-03-05T16:31:52;85.55;;;35.00;;
42978;SDS011;28616;44.746;19.678;2023-03-05T16:34:19;72.20;;;34.92;;
42978;SDS011;28616;44.746;19.678;2023-03-05T16:36:45;103.88;;;48.25;;
42978;SDS011;28616;44.746;19.678;2023-03-05T16:39:13;173.88;;;83.53;;
42978;SDS011;28616;44.746;19.678;2023-03-05T16:41:39;190.68;;;92.13;;
42978;SDS011;28616;44.746;19.678;2023-03-05T16:44:05;198.73;;;92.90;;
42978;SDS011;28616;44.746;19.678;2023-03-05T16:46:31;216.38;;;100.93;;
42978;SDS011;28616;44.746;19.678;2023-03-05T16:48:57;226.40;;;107.95;;
42978;SDS011;28616;44.746;19.678;2023-03-05T16:51:23;234.20;;;110.78;;
42978;SDS011;28616;44.746;19.678;2023-03-05T16:53:50;214.00;;;102.30;;
42978;SDS011;28616;44.746;19.678;2023-03-05T16:56:16;186.65;;;89.65;;
42978;SDS011;28616;44.746;19.678;2023-03-05T16:58:42;181.35;;;81.03;;
42978;SDS011;28616;44.746;19.678;2023-03-05T17:01:09;171.07;;;79.82;;
42978;SDS011;28616;44.746;19.678;2023-03-05T17:03:37;150.98;;;74.95;;
42978;SDS011;28616;44.746;19.678;2023-03-05T17:06:09;148.85;;;72.13;;
42978;SDS011;28616;44.746;19.678;2023-03-05T17:08:36;159.43;;;75.50;;
42978;SDS011;28616;44.746;19.678;2023-03-05T17:11:02;136.05;;;65.65;;
42978;SDS011;28616;44.746;19.678;2023-03-05T17:13:27;125.72;;;65.22;;
42978;SDS011;28616;44.746;19.678;2023-03-05T17:15:53;143.23;;;70.70;;
42978;SDS011;28616;44.746;19.678;2023-03-05T17:18:19;143.93;;;70.20;;
42978;SDS011;28616;44.746;19.678;2023-03-05T17:20:44;167.30;;;79.05;;
42978;SDS011;28616;44.746;19.678;2023-03-05T17:23:11;206.43;;;92.30;;
42978;SDS011;28616;44.746;19.678;2023-03-05T17:25:37;244.18;;;111.82;;
42978;SDS011;28616;44.746;19.678;2023-03-05T17:28:03;181.50;;;85.18;;
42978;SDS011;28616;44.746;19.678;2023-03-05T17:30:29;269.63;;;116.40;;
42978;SDS011;28616;44.746;19.678;2023-03-05T17:32:57;290.90;;;118.30;;
42978;SDS011;28616;44.746;19.678;2023-03-05T17:35:23;366.88;;;152.27;;
42978;SDS011;28616;44.746;19.678;2023-03-05T17:37:49;344.38;;;143.02;;
42978;SDS011;28616;44.746;19.678;2023-03-05T17:40:16;306.60;;;128.13;;
42978;SDS011;28616;44.746;19.678;2023-03-05T17:42:42;313.98;;;135.32;;
42978;SDS011;28616;44.746;19.678;2023-03-05T17:45:08;299.88;;;133.75;;
42978;SDS011;28616;44.746;19.678;2023-03-05T17:47:34;262.50;;;120.03;;
42978;SDS011;28616;44.746;19.678;2023-03-05T17:49:59;246.43;;;110.03;;
42978;SDS011;28616;44.746;19.678;2023-03-05T17:52:25;302.90;;;124.03;;
42978;SDS011;28616;44.746;19.678;2023-03-05T17:54:51;253.75;;;109.22;;
42978;SDS011;28616;44.746;19.678;2023-03-05T17:57:18;242.82;;;104.28;;
42978;SDS011;28616;44.746;19.678;2023-03-05T17:59:44;239.07;;;108.28;;
42978;SDS011;28616;44.746;19.678;2023-03-05T18:02:10;230.52;;;105.85;;
42978;SDS011;28616;44.746;19.678;2023-03-05T18:04:37;223.90;;;97.68;;
42978;SDS011;28616;44.746;19.678;2023-03-05T18:07:04;192.07;;;77.53;;
42978;SDS011;28616;44.746;19.678;2023-03-05T18:09:31;193.77;;;76.95;;
42978;SDS011;28616;44.746;19.678;2023-03-05T18:11:57;154.98;;;62.65;;
42978;SDS011;28616;44.746;19.678;2023-03-05T18:14:23;159.30;;;68.88;;
42978;SDS011;28616;44.746;19.678;2023-03-05T18:16:49;172.27;;;68.25;;
42978;SDS011;28616;44.746;19.678;2023-03-05T18:19:14;182.90;;;74.13;;
42978;SDS011;28616;44.746;19.678;2023-03-05T18:21:40;182.77;;;76.57;;
42978;SDS011;28616;44.746;19.678;2023-03-05T18:24:06;215.48;;;87.68;;
42978;SDS011;28616;44.746;19.678;2023-03-05T18:26:32;248.13;;;97.72;;
42978;SDS011;28616;44.746;19.678;2023-03-05T18:28:58;237.73;;;98.55;;
42978;SDS011;28616;44.746;19.678;2023-03-05T18:31:23;240.82;;;101.45;;
42978;SDS011;28616;44.746;19.678;2023-03-05T18:33:49;280.90;;;120.30;;
42978;SDS011;28616;44.746;19.678;2023-03-05T18:36:15;322.58;;;134.43;;
42978;SDS011;28616;44.746;19.678;2023-03-05T18:38:42;343.33;;;146.10;;
42978;SDS011;28616;44.746;19.678;2023-03-05T18:41:08;371.67;;;155.45;;
42978;SDS011;28616;44.746;19.678;2023-03-05T18:43:42;366.55;;;154.40;;
42978;SDS011;28616;44.746;19.678;2023-03-05T18:46:08;345.92;;;150.85;;
42978;SDS011;28616;44.746;19.678;2023-03-05T18:48:34;341.88;;;143.57;;
42978;SDS011;28616;44.746;19.678;2023-03-05T18:51:00;347.33;;;138.55;;
42978;SDS011;28616;44.746;19.678;2023-03-05T18:53:26;361.58;;;151.10;;
42978;SDS011;28616;44.746;19.678;2023-03-05T18:55:52;345.27;;;145.55;;
42978;SDS011;28616;44.746;19.678;2023-03-05T18:58:18;331.63;;;144.75;;
42978;SDS011;28616;44.746;19.678;2023-03-05T19:00:44;358.98;;;151.57;;
42978;SDS011;28616;44.746;19.678;2023-03-05T19:03:11;333.52;;;146.48;;
42978;SDS011;28616;44.746;19.678;2023-03-05T19:05:38;324.48;;;140.60;;
42978;SDS011;28616;44.746;19.678;2023-03-05T19:08:04;303.63;;;131.30;;
42978;SDS011;28616;44.746;19.678;2023-03-05T19:10:32;287.83;;;127.30;;
42978;SDS011;28616;44.746;19.678;2023-03-05T19:13:58;303.27;;;135.75;;
42978;SDS011;28616;44.746;19.678;2023-03-05T19:21:52;302.67;;;129.90;;
42978;SDS011;28616;44.746;19.678;2023-03-05T19:24:24;303.33;;;135.45;;
42978;SDS011;28616;44.746;19.678;2023-03-05T19:26:51;288.38;;;120.97;;
42978;SDS011;28616;44.746;19.678;2023-03-05T19:29:19;273.17;;;119.68;;
42978;SDS011;28616;44.746;19.678;2023-03-05T19:31:47;245.40;;;105.43;;
42978;SDS011;28616;44.746;19.678;2023-03-05T19:34:13;240.00;;;103.85;;
42978;SDS011;28616;44.746;19.678;2023-03-05T19:36:39;201.68;;;88.88;;
42978;SDS011;28616;44.746;19.678;2023-03-05T19:39:05;123.93;;;56.65;;
42978;SDS011;28616;44.746;19.678;2023-03-05T19:41:31;103.85;;;47.30;;
42978;SDS011;28616;44.746;19.678;2023-03-05T19:43:58;91.22;;;42.22;;
42978;SDS011;28616;44.746;19.678;2023-03-05T19:46:23;106.82;;;49.47;;
42978;SDS011;28616;44.746;19.678;2023-03-05T19:48:49;119.70;;;52.78;;
42978;SDS011;28616;44.746;19.678;2023-03-05T19:51:16;103.78;;;48.15;;
42978;SDS011;28616;44.746;19.678;2023-03-05T19:53:44;102.03;;;46.55;;
42978;SDS011;28616;44.746;19.678;2023-03-05T19:56:10;89.65;;;45.67;;
42978;SDS011;28616;44.746;19.678;2023-03-05T19:58:36;82.22;;;40.10;;
42978;SDS011;28616;44.746;19.678;2023-03-05T20:01:06;80.47;;;39.20;;
42978;SDS011;28616;44.746;19.678;2023-03-05T20:03:38;73.18;;;36.75;;
42978;SDS011;28616;44.746;19.678;2023-03-05T20:06:04;85.63;;;44.53;;
42978;SDS011;28616;44.746;19.678;2023-03-05T20:08:31;95.90;;;46.17;;
42978;SDS011;28616;44.746;19.678;2023-03-05T20:10:57;122.18;;;57.63;;
42978;SDS011;28616;44.746;19.678;2023-03-05T20:13:23;257.27;;;95.15;;
42978;SDS011;28616;44.746;19.678;2023-03-05T20:15:50;607.33;;;261.65;;
42978;SDS011;28616;44.746;19.678;2023-03-05T20:18:16;748.65;;;348.13;;
42978;SDS011;28616;44.746;19.678;2023-03-05T20:20:42;545.63;;;241.95;;
42978;SDS011;28616;44.746;19.678;2023-03-05T20:23:08;466.48;;;215.07;;
42978;SDS011;28616;44.746;19.678;2023-03-05T20:25:34;355.58;;;153.07;;
42978;SDS011;28616;44.746;19.678;2023-03-05T20:28:03;309.02;;;131.43;;
42978;SDS011;28616;44.746;19.678;2023-03-05T20:30:29;379.13;;;159.18;;
42978;SDS011;28616;44.746;19.678;2023-03-05T20:32:55;384.13;;;165.45;;
42978;SDS011;28616;44.746;19.678;2023-03-05T20:35:21;386.35;;;170.10;;
42978;SDS011;28616;44.746;19.678;2023-03-05T20:37:47;462.98;;;214.82;;
42978;SDS011;28616;44.746;19.678;2023-03-05T20:40:34;414.83;;;188.93;;
42978;SDS011;28616;44.746;19.678;2023-03-05T20:43:00;434.73;;;184.73;;
42978;SDS011;28616;44.746;19.678;2023-03-05T20:45:27;397.02;;;176.20;;
42978;SDS011;28616;44.746;19.678;2023-03-05T20:47:52;431.98;;;206.52;;
42978;SDS011;28616;44.746;19.678;2023-03-05T20:50:18;338.80;;;135.52;;
42978;SDS011;28616;44.746;19.678;2023-03-05T20:52:44;324.67;;;123.22;;
42978;SDS011;28616;44.746;19.678;2023-03-05T20:55:10;333.63;;;125.93;;
42978;SDS011;28616;44.746;19.678;2023-03-05T20:57:36;294.02;;;110.38;;
42978;SDS011;28616;44.746;19.678;2023-03-05T21:00:03;275.58;;;105.35;;
42978;SDS011;28616;44.746;19.678;2023-03-05T21:02:29;211.23;;;84.88;;
42978;SDS011;28616;44.746;19.678;2023-03-05T21:04:55;278.70;;;108.15;;
42978;SDS011;28616;44.746;19.678;2023-03-05T21:07:21;393.92;;;155.70;;
42978;SDS011;28616;44.746;19.678;2023-03-05T21:09:49;283.33;;;109.63;;
42978;SDS011;28616;44.746;19.678;2023-03-05T21:12:15;210.82;;;87.35;;
42978;SDS011;28616;44.746;19.678;2023-03-05T21:14:41;237.60;;;104.10;;
42978;SDS011;28616;44.746;19.678;2023-03-05T21:17:08;226.30;;;104.38;;
42978;SDS011;28616;44.746;19.678;2023-03-05T21:19:35;469.42;;;196.88;;
42978;SDS011;28616;44.746;19.678;2023-03-05T21:22:02;630.65;;;238.15;;
42978;SDS011;28616;44.746;19.678;2023-03-05T21:24:27;520.75;;;174.23;;
42978;SDS011;28616;44.746;19.678;2023-03-05T21:27:09;308.30;;;122.43;;
42978;SDS011;28616;44.746;19.678;2023-03-05T21:29:35;268.80;;;108.30;;
42978;SDS011;28616;44.746;19.678;2023-03-05T21:32:01;377.05;;;144.20;;
42978;SDS011;28616;44.746;19.678;2023-03-05T21:34:26;372.30;;;146.38;;
42978;SDS011;28616;44.746;19.678;2023-03-05T21:36:52;552.63;;;221.30;;
42978;SDS011;28616;44.746;19.678;2023-03-05T21:39:18;435.42;;;171.23;;
42978;SDS011;28616;44.746;19.678;2023-03-05T21:41:43;264.25;;;110.75;;
42978;SDS011;28616;44.746;19.678;2023-03-05T21:44:11;224.07;;;92.72;;
42978;SDS011;28616;44.746;19.678;2023-03-05T21:46:41;208.35;;;76.45;;
42978;SDS011;28616;44.746;19.678;2023-03-05T21:49:07;190.90;;;74.95;;
42978;SDS011;28616;44.746;19.678;2023-03-05T21:54:37;190.00;;;77.45;;
42978;SDS011;28616;44.746;19.678;2023-03-05T21:57:03;263.27;;;97.80;;
42978;SDS011;28616;44.746;19.678;2023-03-05T21:59:30;146.05;;;56.92;;
42978;SDS011;28616;44.746;19.678;2023-03-05T22:01:56;195.45;;;79.20;;
42978;SDS011;28616;44.746;19.678;2023-03-05T22:04:22;119.53;;;47.00;;
42978;SDS011;28616;44.746;19.678;2023-03-05T22:06:48;145.10;;;52.83;;
42978;SDS011;28616;44.746;19.678;2023-03-05T22:09:14;103.93;;;46.65;;
42978;SDS011;28616;44.746;19.678;2023-03-05T22:11:40;126.32;;;57.38;;
42978;SDS011;28616;44.746;19.678;2023-03-05T22:14:08;89.68;;;39.00;;
42978;SDS011;28616;44.746;19.678;2023-03-05T22:16:35;87.50;;;39.08;;
42978;SDS011;28616;44.746;19.678;2023-03-05T22:19:01;114.20;;;43.40;;
42978;SDS011;28616;44.746;19.678;2023-03-05T22:21:28;64.82;;;30.20;;
42978;SDS011;28616;44.746;19.678;2023-03-05T22:23:55;56.85;;;25.23;;
42978;SDS011;28616;44.746;19.678;2023-03-05T22:26:21;56.13;;;26.17;;
42978;SDS011;28616;44.746;19.678;2023-03-05T22:28:56;51.38;;;25.20;;
42978;SDS011;28616;44.746;19.678;2023-03-05T22:31:23;57.95;;;27.85;;
42978;SDS011;28616;44.746;19.678;2023-03-05T22:33:50;67.22;;;30.58;;
42978;SDS011;28616;44.746;19.678;2023-03-05T22:36:16;59.67;;;28.08;;
42978;SDS011;28616;44.746;19.678;2023-03-05T22:38:42;59.30;;;27.38;;
42978;SDS011;28616;44.746;19.678;2023-03-05T22:41:08;71.05;;;30.05;;
42978;SDS011;28616;44.746;19.678;2023-03-05T22:43:36;121.13;;;47.92;;
42978;SDS011;28616;44.746;19.678;2023-03-05T22:46:09;78.40;;;33.97;;
42978;SDS011;28616;44.746;19.678;2023-03-05T22:48:52;117.30;;;43.30;;
42978;SDS011;28616;44.746;19.678;2023-03-05T22:51:18;111.47;;;39.50;;
42978;SDS011;28616;44.746;19.678;2023-03-05T22:53:44;159.13;;;57.85;;
42978;SDS011;28616;44.746;19.678;2023-03-05T22:56:11;268.05;;;99.82;;
42978;SDS011;28616;44.746;19.678;2023-03-05T22:58:39;243.30;;;101.18;;
42978;SDS011;28616;44.746;19.678;2023-03-05T23:04:07;248.23;;;106.55;;
42978;SDS011;28616;44.746;19.678;2023-03-05T23:07:02;210.80;;;89.95;;
42978;SDS011;28616;44.746;19.678;2023-03-05T23:09:28;149.27;;;62.13;;
42978;SDS011;28616;44.746;19.678;2023-03-05T23:11:54;80.18;;;35.92;;
42978;SDS011;28616;44.746;19.678;2023-03-05T23:14:19;58.05;;;29.13;;
42978;SDS011;28616;44.746;19.678;2023-03-05T23:16:45;83.95;;;34.90;;
42978;SDS011;28616;44.746;19.678;2023-03-05T23:19:11;107.20;;;42.60;;
42978;SDS011;28616;44.746;19.678;2023-03-05T23:21:37;146.35;;;64.97;;
42978;SDS011;28616;44.746;19.678;2023-03-05T23:24:02;161.07;;;69.70;;
42978;SDS011;28616;44.746;19.678;2023-03-05T23:26:28;164.98;;;70.95;;
42978;SDS011;28616;44.746;19.678;2023-03-05T23:28:54;239.82;;;108.05;;
42978;SDS011;28616;44.746;19.678;2023-03-05T23:31:19;166.30;;;77.68;;
42978;SDS011;28616;44.746;19.678;2023-03-05T23:33:45;158.90;;;70.43;;
42978;SDS011;28616;44.746;19.678;2023-03-05T23:36:11;155.35;;;65.20;;
42978;SDS011;28616;44.746;19.678;2023-03-05T23:38:36;166.35;;;69.53;;
42978;SDS011;28616;44.746;19.678;2023-03-05T23:41:05;161.82;;;64.13;;
42978;SDS011;28616;44.746;19.678;2023-03-05T23:43:32;128.43;;;52.90;;
42978;SDS011;28616;44.746;19.678;2023-03-05T23:45:58;133.32;;;56.78;;
42978;SDS011;28616;44.746;19.678;2023-03-05T23:48:26;111.97;;;51.45;;
42978;SDS011;28616;44.746;19.678;2023-03-05T23:50:53;110.03;;;49.95;;
42978;SDS011;28616;44.746;19.678;2023-03-05T23:53:23;104.63;;;44.17;;
42978;SDS011;28616;44.746;19.678;2023-03-05T23:55:52;98.05;;;46.50;;
42978;SDS011;28616;44.746;19.678;2023-03-05T23:58:18;156.00;;;63.47;;
